| |
Missouri Department of Transportation

Social Media Facebook Twitter Flickr Blog YouTube RSS

Current AWOS Information

 
AWOS Home - General Info for all Airports
Current AWOS for all Airports - Current METAR for all Airports
Glossary - Disclaimer - Other Links


NEVADA--NEVADA MUNICIPAL--KNVD
 
Recent AWOS History
 
09/01/14     06:42 PM CDT      23:42 GMT
Air Temperature 73°F (23°C ) 1st Cloud Layer Broken at 500 feet
Dew Point 72°F (22°C) 2nd Cloud Layer Overcast at 1,000 feet
Barometric Pressure 29.87 in Hg. 3rd Cloud Layer  
Wind Speed 10 mph (9 knots) Density Altitude 2100 feet
Peak Wind Gusts   Variable Wind Directions  
Wind Direction Quadrant(310°) Variable Visibility  
Visibility 3/4 statute miles  

Thunderstorm and Precipitation Identification:  Heavy Rain
Thunderstorm Remarks: 

Current METAR Record: METAR KNVD 012342Z AUTO 31009KT 3/4SM +RA BKN005 OVC010 23/22 A2987 RMK AO2

 

 

 

About Us
How Do I...
Contact Us
Missouri Department of Transportation
Central Office
105 W. Capitol Avenue
Jefferson City, MO 65102
1-888-ASK-MODOT (275-6636)
1-866-831-6277 (Motor Carrier Services)
Drivers License Offices
horz_bar
| | |
Missouri State Government
© 2013 Missouri Department of Transportation. All Rights Reserved.   Privacy Policy.
 
 
 
 
RSS FeedYoutubeBlogFlickrTwitter Facebook